Time;durP1;ratioP1;P1;durP2;ratioP2;P2;SDS_P1;SDS_P2;PMS_P1;PMS_P2;Temp;Humidity;BMP_temperature;BMP_pressure;BME280_temperature;BME280_humidity;BME280_pressure;Samples;Min_cycle;Max_cycle;Signal;HPM_P1;HPM_P2
2022/05/04 03:58:12;;;;;;;8.93;6.32;;;;;;;12.87;73.86;100583.41;5605467;31;81811;-56
2022/05/04 04:01:18;;;;;;;8.23;6.57;;;;;;;12.87;73.86;100583.41;5583767;31;33629;-56
2022/05/04 04:04:20;;;;;;;9.63;6.93;;;;;;;12.39;75.16;100588.88;5583379;31;33534;-56
2022/05/04 04:07:22;;;;;;;8.15;6.57;;;;;;;12.49;74.73;100593.34;5583459;32;33662;-56
2022/05/04 04:10:24;;;;;;;10.57;7.10;;;;;;;12.56;74.39;100593.78;5589808;31;33754;-55
2022/05/04 04:13:27;;;;;;;10.50;6.65;;;;;;;12.51;75.09;100601.91;5603037;31;33637;-55
2022/05/04 04:16:30;;;;;;;9.57;6.87;;;;;;;12.54;74.79;100604.81;5601964;31;33412;-56
2022/05/04 04:19:32;;;;;;;8.07;6.40;;;;;;;12.62;74.67;100606.87;5599219;31;34158;-55
2022/05/04 04:22:34;;;;;;;11.57;7.18;;;;;;;12.65;74.90;100609.00;5603017;31;33543;-56
2022/05/04 04:25:37;;;;;;;11.35;6.82;;;;;;;12.70;74.64;100611.59;5602869;31;33575;-56
2022/05/04 04:28:39;;;;;;;9.48;6.93;;;;;;;12.67;74.90;100608.69;5585088;31;33785;-56
2022/05/04 04:31:42;;;;;;;11.77;7.25;;;;;;;12.71;75.06;100612.41;5583040;31;33760;-55
2022/05/04 04:34:44;;;;;;;11.43;6.82;;;;;;;12.83;74.74;100612.00;5582404;32;34319;-55
2022/05/04 04:37:46;;;;;;;10.80;8.07;;;;;;;12.79;74.90;100614.47;5583893;31;34184;-56
2022/05/04 04:40:50;;;;;;;9.18;6.85;;;;;;;13.05;73.41;100616.81;5583612;31;34281;-56
2022/05/04 04:43:52;;;;;;;9.55;7.40;;;;;;;12.98;73.34;100619.87;5590559;31;34242;-55
2022/05/04 04:46:54;;;;;;;9.88;8.00;;;;;;;12.89;73.85;100622.41;5586509;31;33566;-56
2022/05/04 04:49:57;;;;;;;11.65;7.87;;;;;;;12.82;73.42;100626.53;5578958;31;34299;-56
2022/05/04 04:53:00;;;;;;;11.77;8.85;;;;;;;12.91;72.94;100616.72;5568826;31;33726;-56
2022/05/04 04:56:02;;;;;;;12.15;9.05;;;;;;;13.22;71.13;100616.31;5575874;31;33276;-56
2022/05/04 04:59:04;;;;;;;13.18;8.93;;;;;;;13.22;71.29;100621.69;5571084;31;33679;-56
2022/05/04 05:02:06;;;;;;;17.15;9.13;;;;;;;13.06;71.84;100619.19;5573979;31;33620;-56
2022/05/04 05:05:09;;;;;;;15.57;9.60;;;;;;;13.08;71.51;100622.41;5600270;31;33834;-56
2022/05/04 05:08:12;;;;;;;12.75;9.25;;;;;;;12.96;72.61;100619.34;5571151;31;33625;-55
2022/05/04 05:11:14;;;;;;;14.77;9.55;;;;;;;13.03;72.91;100619.78;5565412;31;33533;-55
2022/05/04 05:17:37;;;;;;;13.98;8.68;;;;;;;13.26;72.39;100623.53;5565087;31;33613;-55
2022/05/04 05:20:40;;;;;;;12.23;9.35;;;;;;;13.34;72.73;100622.06;5559192;31;34335;-55
2022/05/04 05:23:42;;;;;;;17.20;11.80;;;;;;;13.47;71.85;100628.59;5556924;31;34337;-56
2022/05/04 05:26:44;;;;;;;22.50;13.10;;;;;;;13.71;72.63;100625.78;5568588;31;33000;-55
2022/05/04 05:29:46;;;;;;;13.57;9.75;;;;;;;13.90;72.01;100623.84;5565687;31;33585;-56
2022/05/04 05:32:49;;;;;;;12.10;9.45;;;;;;;14.05;71.70;100620.88;5557387;32;33641;-55
2022/05/04 05:35:51;;;;;;;12.65;9.10;;;;;;;14.04;71.83;100619.28;5566849;32;32323;-56
2022/05/04 05:38:53;;;;;;;11.82;9.15;;;;;;;14.26;71.02;100634.78;5568065;31;33606;-56
2022/05/04 05:41:55;;;;;;;11.02;9.25;;;;;;;14.45;70.21;100625.81;5567955;31;33688;-56
2022/05/04 05:44:58;;;;;;;15.98;10.73;;;;;;;14.58;69.76;100633.13;5565498;32;34254;-56
2022/05/04 05:48:00;;;;;;;15.65;10.43;;;;;;;14.84;69.41;100629.94;5563948;31;33180;-56
2022/05/04 05:51:04;;;;;;;13.00;9.70;;;;;;;14.88;69.31;100639.81;5572814;31;33696;-56
2022/05/04 05:54:07;;;;;;;11.57;10.40;;;;;;;15.01;69.05;100640.87;5563317;31;33700;-55
2022/05/04 05:57:09;;;;;;;16.67;10.20;;;;;;;15.20;66.90;100646.16;5551309;31;33226;-55
2022/05/04 06:00:13;;;;;;;15.88;10.55;;;;;;;15.23;70.10;100651.72;5561731;31;33388;-55
2022/05/04 06:03:16;;;;;;;17.70;11.10;;;;;;;15.52;68.94;100647.81;5561414;32;34366;-56
2022/05/04 06:06:19;;;;;;;16.85;12.10;;;;;;;15.64;66.73;100648.06;5557469;31;33748;-56
2022/05/04 06:09:21;;;;;;;18.33;11.98;;;;;;;15.68;66.60;100656.38;5557361;31;33596;-56
2022/05/04 06:12:23;;;;;;;16.95;12.45;;;;;;;15.87;65.00;100648.88;5560901;31;33189;-55
2022/05/04 06:15:26;;;;;;;14.48;12.05;;;;;;;15.94;67.86;100643.03;5582579;31;33664;-56
2022/05/04 06:18:28;;;;;;;14.63;12.27;;;;;;;16.09;65.64;100658.06;5562469;31;33289;-56
2022/05/04 06:21:30;;;;;;;15.68;11.23;;;;;;;16.11;65.37;100658.56;5560459;32;33417;-56
2022/05/04 06:24:32;;;;;;;13.93;10.63;;;;;;;16.21;66.15;100656.38;5554860;31;33382;-55
2022/05/04 06:27:35;;;;;;;23.50;11.70;;;;;;;16.30;70.33;100656.44;5554138;32;34378;-56
2022/05/04 06:34:10;;;;;;;14.82;11.75;;;;;;;16.37;65.84;100656.78;5557083;32;33562;-56
2022/05/04 06:37:12;;;;;;;16.48;12.68;;;;;;;16.43;66.01;100663.66;5556982;31;34278;-56
2022/05/04 06:40:15;;;;;;;14.23;11.18;;;;;;;16.49;64.78;100655.38;5564133;32;33676;-56
2022/05/04 06:43:17;;;;;;;17.00;13.90;;;;;;;16.79;66.08;100651.88;5561323;31;34316;-56
2022/05/04 06:46:20;;;;;;;17.00;12.65;;;;;;;16.69;62.34;100657.53;5563695;31;33979;-55
2022/05/04 06:49:22;;;;;;;17.02;12.68;;;;;;;16.68;62.35;100659.41;5563162;31;34209;-56
2022/05/04 06:52:24;;;;;;;12.55;10.95;;;;;;;16.78;63.39;100661.06;5557652;31;33697;-56
2022/05/04 06:55:27;;;;;;;16.95;11.60;;;;;;;16.94;64.45;100644.41;5556227;31;33605;-56
2022/05/04 06:58:29;;;;;;;15.02;11.52;;;;;;;16.94;63.20;100655.22;5576286;31;34002;-55
2022/05/04 07:01:32;;;;;;;12.55;10.38;;;;;;;16.90;63.03;100653.16;5566979;32;33174;-55
2022/05/04 07:04:35;;;;;;;11.82;9.63;;;;;;;17.03;66.63;100653.34;5559485;31;33686;-56
2022/05/04 07:07:37;;;;;;;13.30;11.75;;;;;;;17.27;67.67;100659.09;5554808;32;34339;-56
2022/05/04 07:10:40;;;;;;;18.37;11.73;;;;;;;17.48;63.47;100655.72;5558421;31;33524;-57
2022/05/04 07:13:43;;;;;;;12.18;10.63;;;;;;;17.73;64.14;100652.22;5565770;31;33750;-55
2022/05/04 07:16:45;;;;;;;11.85;9.73;;;;;;;17.66;60.13;100649.19;5560013;32;34343;-56
2022/05/04 07:19:48;;;;;;;12.55;11.25;;;;;;;17.74;63.39;100650.28;5560618;32;34419;-56
2022/05/04 07:22:51;;;;;;;18.58;11.77;;;;;;;17.77;59.09;100653.19;5561056;32;33692;-55
2022/05/04 07:25:54;;;;;;;18.40;13.23;;;;;;;17.83;59.10;100651.09;5554976;31;34225;-56
2022/05/04 07:28:57;;;;;;;14.20;11.60;;;;;;;17.88;58.61;100655.56;5560340;32;34302;-56
2022/05/04 07:31:59;;;;;;;19.55;14.25;;;;;;;17.91;61.35;100663.03;5566433;31;33325;-55
2022/05/04 07:35:02;;;;;;;17.20;13.10;;;;;;;18.07;59.87;100661.41;5571894;31;33766;-56
2022/05/04 07:38:04;;;;;;;13.13;11.73;;;;;;;18.11;59.84;100651.50;5563887;31;34304;-56
2022/05/04 07:44:27;;;;;;;15.95;10.63;;;;;;;18.27;60.62;100655.28;5556817;32;33732;-56
2022/05/04 07:47:32;;;;;;;18.20;12.05;;;;;;;18.41;64.55;100665.13;5563096;32;33819;-57
2022/05/04 07:50:35;;;;;;;15.80;12.02;;;;;;;18.42;57.41;100658.59;5564625;31;33739;-56
2022/05/04 07:53:37;;;;;;;32.03;13.38;;;;;;;18.37;56.40;100654.13;5555062;31;34203;-56
2022/05/04 07:56:40;;;;;;;14.82;11.23;;;;;;;18.38;57.32;100653.03;5560813;31;33693;-56
2022/05/04 07:59:42;;;;;;;10.95;8.90;;;;;;;18.62;56.64;100657.84;5545366;32;33525;-56
2022/05/04 08:06:21;;;;;;;16.55;9.85;;;;;;;18.82;55.10;100660.97;5499502;31;33038;-56
2022/05/04 08:09:23;;;;;;;15.50;9.13;;;;;;;18.91;57.22;100667.94;5565365;31;34258;-56
2022/05/04 08:12:26;;;;;;;7.62;6.78;;;;;;;18.93;54.47;100662.97;5556888;31;34338;-56
2022/05/04 08:15:30;;;;;;;10.30;7.25;;;;;;;18.90;52.25;100663.63;5565223;31;32144;-56
2022/05/04 08:18:33;;;;;;;17.90;9.30;;;;;;;18.85;52.67;100658.41;5562127;31;34416;-56
2022/05/04 08:21:37;;;;;;;13.62;8.27;;;;;;;18.90;54.46;100660.13;5554970;31;33818;-56
2022/05/04 08:24:39;;;;;;;12.43;8.95;;;;;;;18.99;55.03;100660.87;5561244;31;34333;-56
2022/05/04 08:27:41;;;;;;;8.50;6.95;;;;;;;19.16;54.93;100658.03;5559014;31;33867;-56
2022/05/04 08:30:44;;;;;;;10.75;7.70;;;;;;;19.36;55.45;100661.88;5567914;31;34408;-56
2022/05/04 08:33:46;;;;;;;19.45;8.05;;;;;;;19.38;53.00;100661.53;5559761;31;33428;-55
2022/05/04 08:36:48;;;;;;;10.68;6.03;;;;;;;19.35;53.54;100660.28;5564464;31;34275;-55
2022/05/04 08:39:50;;;;;;;8.80;6.60;;;;;;;19.38;56.35;100665.06;5570385;31;33650;-55
2022/05/04 08:42:55;;;;;;;10.95;6.28;;;;;;;19.47;53.52;100667.72;5564554;31;33615;-56
2022/05/04 08:46:00;;;;;;;9.23;5.37;;;;;;;19.55;54.53;100669.53;5562150;31;33615;-56
2022/05/04 08:49:04;;;;;;;10.43;5.47;;;;;;;19.63;52.10;100670.59;5556224;31;34238;-56
2022/05/04 08:52:07;;;;;;;11.55;4.47;;;;;;;19.67;53.68;100671.56;5559386;31;33654;-56
2022/05/04 08:55:11;;;;;;;5.00;4.45;;;;;;;19.75;50.99;100664.44;5558370;31;32113;-55
2022/05/04 08:58:13;;;;;;;5.82;4.70;;;;;;;19.73;50.27;100664.75;5557536;31;34394;-56
2022/05/04 09:01:15;;;;;;;5.82;3.53;;;;;;;19.72;51.83;100671.34;5556386;31;33593;-56
2022/05/04 09:04:18;;;;;;;5.07;3.33;;;;;;;19.73;44.23;100658.53;5562779;31;33759;-57
2022/05/04 09:07:21;;;;;;;7.90;3.50;;;;;;;19.77;47.37;100667.59;5563283;31;33892;-56
2022/05/04 09:10:27;;;;;;;5.45;3.55;;;;;;;19.86;49.03;100674.56;5567503;31;33335;-57
2022/05/04 09:13:29;;;;;;;5.60;3.78;;;;;;;19.97;47.22;100666.78;5567172;31;34458;-56
2022/05/04 09:16:32;;;;;;;6.45;4.32;;;;;;;20.06;51.83;100664.75;5567665;31;33915;-57
2022/05/04 09:19:35;;;;;;;7.10;3.67;;;;;;;20.23;48.83;100669.22;5556757;31;36295;-57
2022/05/04 09:22:37;;;;;;;6.45;3.55;;;;;;;20.31;42.72;100665.59;5567803;31;32994;-55
2022/05/04 09:25:40;;;;;;;7.37;3.58;;;;;;;20.34;43.83;100673.09;5551507;32;33465;-56
2022/05/04 09:28:42;;;;;;;7.57;3.55;;;;;;;20.37;47.41;100661.50;5553117;32;34066;-56
2022/05/04 09:31:47;;;;;;;6.25;3.45;;;;;;;20.42;41.80;100657.75;5556320;31;33708;-56
2022/05/04 09:34:49;;;;;;;7.45;4.30;;;;;;;20.48;40.08;100664.56;5562707;31;33429;-56
2022/05/04 09:44:55;;;;;;;7.50;3.78;;;;;;;20.23;41.95;100660.22;5555676;31;33733;-56
2022/05/04 09:47:57;;;;;;;6.15;3.53;;;;;;;20.19;43.31;100654.66;5558065;32;33371;-56
2022/05/04 09:51:09;;;;;;;4.05;3.15;;;;;;;20.09;42.09;100658.63;5558798;32;33156;-56
2022/05/04 09:54:16;;;;;;;4.43;3.53;;;;;;;20.05;42.03;100657.72;5566478;31;33809;-56
2022/05/04 09:57:20;;;;;;;5.07;3.67;;;;;;;20.11;41.24;100655.59;5559096;31;33987;-56
2022/05/04 10:00:24;;;;;;;9.77;4.07;;;;;;;20.10;42.96;100649.34;5562771;32;33886;-56
2022/05/04 10:03:27;;;;;;;4.62;3.20;;;;;;;20.10;42.35;100649.34;5559256;32;33657;-56
2022/05/04 10:06:31;;;;;;;5.57;3.60;;;;;;;20.15;45.95;100649.12;5556955;31;34034;-56
2022/05/04 10:09:34;;;;;;;5.20;3.50;;;;;;;20.13;47.59;100648.69;5567024;31;32408;-56
2022/05/04 10:12:42;;;;;;;6.15;3.42;;;;;;;20.24;44.29;100640.84;5565287;31;34320;-56
2022/05/04 10:15:47;;;;;;;4.57;3.40;;;;;;;20.27;42.90;100639.41;5549215;32;33790;-56
2022/05/04 10:18:50;;;;;;;7.45;3.45;;;;;;;20.29;40.81;100632.44;5562845;31;33753;-56
2022/05/04 10:21:57;;;;;;;5.22;3.40;;;;;;;20.33;41.11;100627.13;5570528;31;33698;-56
2022/05/04 10:25:01;;;;;;;5.85;3.22;;;;;;;20.42;41.56;100628.59;5557920;32;34995;-56
2022/05/04 10:28:10;;;;;;;9.90;4.12;;;;;;;20.63;41.50;100625.81;5556279;32;33431;-56
2022/05/04 10:31:12;;;;;;;6.70;3.47;;;;;;;20.74;42.54;100617.16;5567954;31;33699;-56
2022/05/04 10:34:15;;;;;;;4.45;3.37;;;;;;;20.68;41.29;100622.03;5568084;32;33681;-55
2022/05/04 10:37:19;;;;;;;5.45;3.10;;;;;;;20.77;41.70;100613.75;5563250;31;34341;-56
2022/05/04 10:40:24;;;;;;;4.53;3.47;;;;;;;20.80;43.10;100613.87;5552370;31;33978;-56
2022/05/04 10:43:37;;;;;;;3.53;2.80;;;;;;;20.90;44.12;100604.41;5565509;31;33645;-56
2022/05/04 10:46:41;;;;;;;8.30;3.72;;;;;;;21.07;44.96;100603.34;5565011;31;32919;-56
2022/05/04 10:49:43;;;;;;;4.20;3.45;;;;;;;21.12;42.98;100609.38;5570905;31;34365;-56
2022/05/04 10:52:47;;;;;;;6.05;3.75;;;;;;;21.08;41.64;100604.94;5558630;32;34444;-56
2022/05/04 10:56:01;;;;;;;9.02;3.97;;;;;;;21.14;41.27;100600.03;5564845;31;33315;-56
2022/05/04 10:59:03;;;;;;;4.28;3.83;;;;;;;21.19;44.04;100594.31;5566820;31;33606;-56
2022/05/04 11:02:12;;;;;;;8.23;4.60;;;;;;;21.14;40.50;100597.31;5563116;31;34250;-56
2022/05/04 11:05:14;;;;;;;7.03;4.10;;;;;;;21.06;40.66;100588.94;5566935;31;33712;-56
2022/05/04 11:08:26;;;;;;;6.25;3.75;;;;;;;21.15;41.42;100590.72;5568437;31;33000;-56
2022/05/04 11:11:30;;;;;;;8.60;3.67;;;;;;;21.21;40.94;100584.66;5567977;31;33963;-56
2022/05/04 11:14:34;;;;;;;7.57;3.80;;;;;;;21.29;40.49;100591.91;5566263;32;33692;-56
2022/05/04 11:17:37;;;;;;;5.45;3.65;;;;;;;21.34;40.31;100586.22;5566536;31;33796;-55
2022/05/04 11:20:47;;;;;;;4.95;3.08;;;;;;;21.35;39.85;100589.75;5564863;31;34401;-56
2022/05/04 11:23:52;;;;;;;5.62;3.42;;;;;;;21.38;40.63;100591.00;5561504;32;33702;-56
2022/05/04 11:26:55;;;;;;;12.35;4.00;;;;;;;21.39;42.30;100589.84;5555314;31;33623;-56
2022/05/04 11:29:58;;;;;;;4.40;2.95;;;;;;;21.50;38.04;100601.84;5565795;31;33597;-57
2022/05/04 11:33:06;;;;;;;6.87;3.30;;;;;;;21.54;38.98;100598.06;5569610;31;34527;-56
2022/05/04 11:36:10;;;;;;;7.50;3.70;;;;;;;21.57;40.62;100600.09;5567677;31;33307;-56
2022/05/04 11:39:18;;;;;;;7.65;3.53;;;;;;;21.53;42.06;100598.44;5567919;32;34033;-56
2022/05/04 11:42:22;;;;;;;9.27;3.42;;;;;;;21.46;41.79;100592.78;5567973;31;33683;-56
2022/05/04 11:45:25;;;;;;;7.07;3.35;;;;;;;21.41;43.63;100593.03;5567987;32;33809;-56
2022/05/04 11:48:27;;;;;;;5.80;3.80;;;;;;;21.34;44.79;100590.88;5567460;32;33997;-56
2022/05/04 11:51:29;;;;;;;11.15;3.33;;;;;;;21.30;42.63;100595.44;5570031;31;33642;-56
2022/05/04 11:54:32;;;;;;;5.37;3.12;;;;;;;21.24;42.03;100600.31;5565361;31;33802;-56
2022/05/04 11:57:42;;;;;;;4.32;3.05;;;;;;;21.21;43.18;100597.50;5559161;31;34342;-56
2022/05/04 12:00:45;;;;;;;13.32;3.30;;;;;;;21.08;42.92;100599.47;5567722;31;34328;-56
2022/05/04 12:03:49;;;;;;;9.13;4.35;;;;;;;20.96;42.09;100599.50;5557321;31;33704;-56
2022/05/04 12:06:51;;;;;;;8.35;3.65;;;;;;;20.89;41.31;100605.53;5547771;32;33812;-56
2022/05/04 12:09:53;;;;;;;10.27;3.65;;;;;;;20.85;42.05;100601.91;5565756;32;34397;-56
2022/05/04 12:12:58;;;;;;;15.82;4.00;;;;;;;20.83;40.98;100605.00;5573103;31;33975;-56
2022/05/04 12:16:01;;;;;;;5.60;3.10;;;;;;;20.75;40.92;100600.47;5585749;31;34451;-57
2022/05/04 12:19:03;;;;;;;4.53;3.37;;;;;;;20.79;39.78;100606.81;5588727;31;33974;-56
2022/05/04 12:22:07;;;;;;;9.50;3.20;;;;;;;20.70;40.28;100610.81;5589269;31;34463;-56
2022/05/04 12:25:09;;;;;;;6.45;3.78;;;;;;;20.71;42.63;100612.41;5589033;31;33667;-56
2022/05/04 12:28:11;;;;;;;6.30;3.47;;;;;;;20.52;45.34;100613.75;5588576;31;33764;-56
2022/05/04 12:34:35;;;;;;;8.50;4.60;;;;;;;20.33;51.50;100602.63;5589078;31;33742;-56
2022/05/04 12:37:37;;;;;;;7.57;4.97;;;;;;;20.26;52.55;100591.50;5589509;31;34006;-56
2022/05/04 12:40:40;;;;;;;6.87;4.50;;;;;;;20.16;57.91;100593.56;5589289;31;34058;-56
2022/05/04 12:43:42;;;;;;;7.60;4.55;;;;;;;20.12;54.89;100589.91;5589252;31;33735;-56
2022/05/04 12:46:53;;;;;;;9.13;5.07;;;;;;;20.09;60.22;100584.34;5589139;31;34408;-56
2022/05/04 12:49:55;;;;;;;6.80;4.68;;;;;;;20.05;63.24;100584.25;5589262;31;33715;-56
2022/05/04 12:52:58;;;;;;;7.57;4.93;;;;;;;20.05;65.41;100586.97;5589261;31;33251;-56
2022/05/04 12:59:21;;;;;;;7.95;4.12;;;;;;;20.15;57.03;100580.28;5589239;31;34432;-56
2022/05/04 13:02:23;;;;;;;5.20;3.30;;;;;;;20.21;56.84;100573.47;5589229;31;33753;-56
2022/05/04 13:05:25;;;;;;;5.80;4.03;;;;;;;20.15;55.50;100575.63;5589229;31;34306;-55
2022/05/04 13:08:27;;;;;;;6.22;3.78;;;;;;;20.10;55.57;100570.44;5588976;31;33612;-56
2022/05/04 13:11:31;;;;;;;7.22;4.00;;;;;;;20.09;54.29;100568.03;5588949;31;34403;-56
2022/05/04 13:14:33;;;;;;;5.53;4.20;;;;;;;20.03;52.33;100570.16;5579097;31;33312;-56
2022/05/04 13:17:35;;;;;;;7.30;3.87;;;;;;;20.06;53.85;100569.50;5568996;32;33653;-56
2022/05/04 13:20:38;;;;;;;4.75;3.65;;;;;;;20.06;52.09;100574.16;5569299;32;34669;-56
2022/05/04 13:23:40;;;;;;;4.70;3.60;;;;;;;20.09;57.82;100568.03;5569272;32;33256;-56
2022/05/04 13:26:42;;;;;;;4.95;3.70;;;;;;;20.10;54.94;100567.69;5569031;32;34957;-56
2022/05/04 13:29:45;;;;;;;4.60;3.78;;;;;;;20.18;47.12;100566.00;5568695;32;34450;-56
2022/05/04 13:32:47;;;;;;;6.05;4.10;;;;;;;20.18;53.48;100569.50;5569130;32;33665;-56
2022/05/04 13:35:49;;;;;;;7.00;3.83;;;;;;;20.16;51.83;100565.53;5569251;32;34402;-56
2022/05/04 13:38:51;;;;;;;10.05;4.10;;;;;;;20.29;56.66;100571.78;5568953;32;34252;-56
2022/05/04 13:41:54;;;;;;;8.88;3.95;;;;;;;20.37;56.16;100568.16;5569184;32;33825;-56
2022/05/04 13:44:56;;;;;;;6.05;3.97;;;;;;;20.54;56.62;100567.94;5568784;32;33208;-56
2022/05/04 13:47:58;;;;;;;5.75;3.80;;;;;;;20.62;54.88;100564.28;5568827;32;34281;-56
2022/05/04 13:54:22;;;;;;;7.35;4.18;;;;;;;20.71;49.62;100575.06;5569080;32;33789;-56
2022/05/04 13:57:24;;;;;;;5.57;3.60;;;;;;;20.77;50.66;100570.16;5569078;32;34175;-56
2022/05/04 14:00:26;;;;;;;7.95;3.67;;;;;;;20.82;48.31;100580.81;5568741;32;33613;-56
2022/05/04 14:03:29;;;;;;;6.18;3.03;;;;;;;20.94;48.41;100582.72;5568952;32;33935;-56
2022/05/04 14:06:31;;;;;;;3.70;2.97;;;;;;;20.95;47.24;100576.91;5569094;32;34249;-56
2022/05/04 14:09:34;;;;;;;5.10;3.20;;;;;;;21.04;49.98;100576.78;5568769;32;33738;-56
2022/05/04 14:12:36;;;;;;;6.57;3.20;;;;;;;21.03;48.16;100576.00;5568553;32;33509;-56
2022/05/04 14:15:39;;;;;;;4.65;2.97;;;;;;;21.12;47.89;100576.66;5568593;32;33367;-56
2022/05/04 14:18:42;;;;;;;8.07;2.90;;;;;;;21.11;44.37;100563.34;5568869;32;33379;-56
2022/05/04 14:21:44;;;;;;;6.22;2.85;;;;;;;21.11;44.33;100561.41;5568714;32;33633;-56
2022/05/04 14:24:46;;;;;;;4.60;2.85;;;;;;;21.17;46.93;100566.63;5567624;32;33340;-56
2022/05/04 14:27:48;;;;;;;7.87;3.67;;;;;;;21.18;46.36;100566.28;5568982;32;33768;-56
2022/05/04 14:31:03;;;;;;;6.43;3.40;;;;;;;21.10;45.49;100556.31;5569147;32;33730;-55
2022/05/04 14:34:05;;;;;;;8.27;3.70;;;;;;;21.09;45.50;100560.97;5568724;32;34408;-56
2022/05/04 14:37:08;;;;;;;6.37;3.65;;;;;;;21.12;46.96;100557.56;5569046;32;33436;-56
2022/05/04 14:40:11;;;;;;;7.45;3.80;;;;;;;21.16;48.96;100554.12;5567725;32;33333;-56
2022/05/04 14:43:13;;;;;;;6.35;3.60;;;;;;;21.12;47.02;100552.13;5569056;32;33636;-56
2022/05/04 14:46:15;;;;;;;8.07;3.67;;;;;;;21.12;48.94;100554.84;5568941;32;33649;-56
2022/05/04 14:49:18;;;;;;;7.03;3.50;;;;;;;21.12;48.58;100552.13;5568809;32;33711;-56
2022/05/04 14:52:20;;;;;;;8.07;3.28;;;;;;;21.12;47.57;100549.37;5568950;32;34274;-56
2022/05/04 14:55:22;;;;;;;13.48;3.50;;;;;;;21.08;47.83;100553.94;5568743;32;34392;-56
2022/05/04 14:58:25;;;;;;;6.28;3.15;;;;;;;21.15;45.58;100549.81;5568747;32;33652;-56
2022/05/04 15:01:27;;;;;;;5.97;3.00;;;;;;;21.07;45.19;100544.16;5568616;32;33664;-55
2022/05/04 15:07:51;;;;;;;5.28;3.20;;;;;;;21.00;47.43;100540.47;5568795;32;33637;-56
2022/05/04 15:10:54;;;;;;;5.53;3.12;;;;;;;21.04;46.94;100539.41;5568796;32;33781;-56
2022/05/04 15:13:56;;;;;;;5.37;3.28;;;;;;;20.99;47.80;100538.84;5568991;32;34379;-56
2022/05/04 15:16:58;;;;;;;7.10;4.30;;;;;;;21.02;47.51;100541.69;5569092;32;33239;-56
2022/05/04 15:20:00;;;;;;;7.40;3.80;;;;;;;21.01;46.99;100539.31;5568728;32;33695;-56
2022/05/04 15:23:03;;;;;;;5.30;3.58;;;;;;;20.94;47.06;100537.19;5568734;32;33809;-56
2022/05/04 15:26:05;;;;;;;5.28;3.35;;;;;;;20.87;50.59;100537.78;5568396;32;34380;-56
2022/05/04 15:29:07;;;;;;;4.20;3.22;;;;;;;20.87;48.97;100539.72;5568434;32;33583;-56
2022/05/04 15:32:09;;;;;;;9.98;3.40;;;;;;;20.78;52.16;100534.38;5568786;32;33928;-56
2022/05/04 15:35:12;;;;;;;5.03;3.40;;;;;;;20.76;48.53;100536.69;5568782;32;33744;-56
2022/05/04 15:38:14;;;;;;;8.80;3.50;;;;;;;20.75;50.27;100531.56;5568625;32;33726;-56
2022/05/04 15:41:17;;;;;;;8.50;3.40;;;;;;;20.68;48.04;100531.34;5568666;32;33373;-56
2022/05/04 15:44:19;;;;;;;7.22;4.07;;;;;;;20.74;50.27;100532.72;5568566;32;34430;-56
2022/05/04 15:47:21;;;;;;;9.75;4.25;;;;;;;20.78;49.34;100539.06;5568325;32;34326;-56
2022/05/04 15:50:23;;;;;;;6.45;3.70;;;;;;;20.72;49.17;100537.69;5567852;32;33707;-57
2022/05/04 15:53:26;;;;;;;6.85;3.47;;;;;;;20.64;49.63;100531.25;5568219;32;33490;-56
